Time;durP1;ratioP1;P1;durP2;ratioP2;P2;SDS_P1;SDS_P2;PMS_P1;PMS_P2;Temp;Humidity;BMP_temperature;BMP_pressure;BME280_temperature;BME280_humidity;BME280_pressure;Samples;Min_cycle;Max_cycle;Signal;HPM_P1;HPM_P2
2024/01/06 00:01:49;;;;;;;15.53;13.00;;;7.20;99.90;;;;;;5050503;28;20258;-74
2024/01/06 00:04:15;;;;;;;15.43;12.87;;;7.20;99.90;;;;;;5050768;28;20234;-74
2024/01/06 00:06:40;;;;;;;12.67;11.40;;;7.20;99.90;;;;;;5050840;28;20639;-74
2024/01/06 00:09:07;;;;;;;18.17;13.70;;;7.10;99.90;;;;;;5050942;28;20191;-73
2024/01/06 00:11:32;;;;;;;18.43;13.50;;;7.10;99.90;;;;;;5050827;28;20175;-73
2024/01/06 00:13:58;;;;;;;14.67;12.60;;;7.10;99.90;;;;;;5051549;28;20336;-73
2024/01/06 00:16:23;;;;;;;15.17;13.20;;;7.10;99.90;;;;;;5050894;28;20555;-73
2024/01/06 00:18:49;;;;;;;13.50;11.57;;;7.00;99.90;;;;;;5050281;28;20191;-73
2024/01/06 00:21:15;;;;;;;15.40;12.53;;;7.00;99.90;;;;;;5050716;28;20650;-73
2024/01/06 00:23:41;;;;;;;15.03;13.40;;;7.00;99.90;;;;;;5050473;28;20555;-74
2024/01/06 00:26:08;;;;;;;18.20;12.97;;;6.90;99.90;;;;;;5050174;28;20193;-73
2024/01/06 00:28:34;;;;;;;17.23;14.40;;;7.00;99.90;;;;;;5050331;28;20195;-73
2024/01/06 00:30:59;;;;;;;17.43;13.20;;;7.00;99.90;;;;;;5050493;28;20661;-73
2024/01/06 00:33:25;;;;;;;17.07;13.67;;;6.90;99.90;;;;;;5050505;28;20179;-73
2024/01/06 00:35:50;;;;;;;18.90;14.27;;;6.90;99.90;;;;;;5050386;28;20229;-73
2024/01/06 00:38:16;;;;;;;16.57;14.20;;;6.90;99.90;;;;;;5050070;28;20270;-73
2024/01/06 00:40:41;;;;;;;24.80;15.40;;;6.90;99.90;;;;;;5050223;28;20174;-73
2024/01/06 00:43:07;;;;;;;19.70;15.33;;;6.90;99.90;;;;;;5050102;28;20186;-73
2024/01/06 00:45:33;;;;;;;19.43;15.50;;;6.90;99.90;;;;;;5050394;28;20225;-73
2024/01/06 00:47:58;;;;;;;19.63;15.50;;;6.90;99.90;;;;;;5050659;28;20215;-74
2024/01/06 00:50:24;;;;;;;19.40;15.83;;;6.80;99.90;;;;;;5050931;28;20274;-73
2024/01/06 00:52:52;;;;;;;19.43;15.87;;;6.90;99.90;;;;;;5050117;28;20198;-74
2024/01/06 00:55:21;;;;;;;23.47;15.57;;;7.00;99.90;;;;;;5053258;28;20208;-74
2024/01/06 00:57:47;;;;;;;20.87;16.07;;;6.90;99.90;;;;;;5053715;28;20245;-74
2024/01/06 01:00:13;;;;;;;21.23;15.30;;;7.00;99.90;;;;;;5053582;28;20199;-74
2024/01/06 01:02:39;;;;;;;22.07;15.63;;;6.90;99.90;;;;;;5053889;28;20170;-74
2024/01/06 01:05:07;;;;;;;23.47;16.93;;;6.90;99.90;;;;;;5053515;28;20289;-74
2024/01/06 01:07:33;;;;;;;23.77;15.87;;;6.90;99.90;;;;;;5053368;28;20232;-74
2024/01/06 01:09:58;;;;;;;20.27;15.07;;;7.00;99.90;;;;;;5053497;28;20293;-74
2024/01/06 01:12:24;;;;;;;21.40;16.07;;;6.90;99.90;;;;;;5053488;28;20179;-74
2024/01/06 01:14:50;;;;;;;21.97;16.50;;;7.00;99.90;;;;;;5053374;28;20175;-74
2024/01/06 01:17:16;;;;;;;26.63;17.13;;;7.10;99.90;;;;;;5053342;28;20522;-74
2024/01/06 01:19:42;;;;;;;25.37;17.50;;;7.10;99.90;;;;;;5053441;28;20210;-74
2024/01/06 01:22:07;;;;;;;21.47;16.60;;;7.00;99.90;;;;;;5053207;28;20273;-72
2024/01/06 01:24:33;;;;;;;22.70;18.60;;;7.10;99.90;;;;;;5053406;28;20233;-73
2024/01/06 01:26:59;;;;;;;26.80;16.53;;;7.00;99.90;;;;;;5052830;28;20175;-72
2024/01/06 01:29:25;;;;;;;25.07;16.83;;;7.10;99.90;;;;;;5052958;28;20194;-73
2024/01/06 01:31:51;;;;;;;24.07;17.27;;;7.10;99.90;;;;;;5053490;28;20613;-73
2024/01/06 01:34:17;;;;;;;22.57;17.17;;;7.10;99.90;;;;;;5053184;28;20232;-72
2024/01/06 01:36:43;;;;;;;23.50;17.37;;;7.10;99.90;;;;;;5053043;28;20261;-73
2024/01/06 01:39:09;;;;;;;28.90;18.70;;;7.10;99.90;;;;;;5052891;28;20198;-72
2024/01/06 01:41:35;;;;;;;26.20;17.33;;;7.10;99.90;;;;;;5053073;28;20174;-71
2024/01/06 01:44:01;;;;;;;25.57;17.83;;;7.10;99.90;;;;;;5052501;28;20554;-72
2024/01/06 01:46:30;;;;;;;23.83;17.60;;;7.10;99.90;;;;;;5052579;28;20194;-71
2024/01/06 01:48:58;;;;;;;24.93;17.37;;;7.10;99.90;;;;;;5052527;28;20195;-72
2024/01/06 01:51:27;;;;;;;26.77;17.73;;;7.10;99.90;;;;;;5052690;28;20181;-72
2024/01/06 01:53:53;;;;;;;24.27;17.67;;;7.20;99.90;;;;;;5034797;28;20187;-71
2024/01/06 01:56:19;;;;;;;24.57;17.40;;;7.20;99.90;;;;;;5052665;28;20229;-72
2024/01/06 01:58:46;;;;;;;22.17;15.83;;;7.20;99.90;;;;;;5052319;28;20210;-72
2024/01/06 02:01:12;;;;;;;23.07;16.77;;;7.30;99.90;;;;;;5052394;28;20190;-71
2024/01/06 02:03:40;;;;;;;24.70;17.23;;;7.20;99.90;;;;;;5052616;28;20213;-72
2024/01/06 02:06:06;;;;;;;26.10;17.80;;;7.20;99.90;;;;;;5051339;28;20174;-74
2024/01/06 02:08:31;;;;;;;24.73;17.10;;;7.30;99.90;;;;;;5052300;28;20705;-71
2024/01/06 02:10:57;;;;;;;26.27;18.33;;;7.20;99.90;;;;;;5052459;28;20182;-71
2024/01/06 02:13:24;;;;;;;26.93;17.70;;;7.20;99.90;;;;;;5053134;28;20187;-73
2024/01/06 02:15:49;;;;;;;28.73;18.07;;;7.20;99.90;;;;;;5052316;28;20261;-72
2024/01/06 02:18:15;;;;;;;28.10;18.13;;;7.30;99.90;;;;;;5052156;28;20278;-72
2024/01/06 02:20:46;;;;;;;29.97;18.60;;;7.30;99.90;;;;;;5052284;28;20181;-72
2024/01/06 02:23:12;;;;;;;27.93;19.40;;;7.20;99.90;;;;;;5051765;28;20210;-72
2024/01/06 02:25:37;;;;;;;31.83;18.80;;;7.20;99.90;;;;;;5034192;28;20179;-72
2024/01/06 02:28:03;;;;;;;25.77;17.47;;;7.20;99.90;;;;;;5051932;28;20198;-72
2024/01/06 02:30:29;;;;;;;31.80;19.17;;;7.20;99.90;;;;;;5052019;28;20253;-72
2024/01/06 02:32:54;;;;;;;29.20;19.10;;;7.20;99.90;;;;;;5051975;28;20564;-72
2024/01/06 02:35:20;;;;;;;31.90;18.50;;;7.10;99.90;;;;;;5052266;28;20541;-72
2024/01/06 02:37:46;;;;;;;31.30;18.33;;;7.10;99.90;;;;;;5051858;28;20186;-72
2024/01/06 02:40:13;;;;;;;29.17;19.67;;;7.00;99.90;;;;;;5051828;28;20221;-73
2024/01/06 02:42:39;;;;;;;32.07;21.43;;;7.00;99.90;;;;;;5051688;28;20198;-72
2024/01/06 02:45:05;;;;;;;31.27;19.47;;;7.00;99.90;;;;;;5051580;28;20207;-73
2024/01/06 02:47:30;;;;;;;34.87;19.57;;;7.00;99.90;;;;;;5051329;28;20578;-73
2024/01/06 02:49:56;;;;;;;34.20;20.73;;;7.10;99.90;;;;;;5051769;28;20187;-73
2024/01/06 02:52:22;;;;;;;33.90;21.27;;;7.10;99.90;;;;;;5051804;28;20218;-73
2024/01/06 02:54:48;;;;;;;35.13;20.30;;;7.00;99.90;;;;;;5051999;28;20718;-73
2024/01/06 02:57:15;;;;;;;40.07;20.83;;;7.10;99.90;;;;;;5051538;28;20232;-73
2024/01/06 02:59:40;;;;;;;33.10;20.93;;;7.10;99.90;;;;;;5051555;28;20198;-73
2024/01/06 03:02:07;;;;;;;37.33;21.20;;;7.10;99.90;;;;;;5051532;28;20170;-73
2024/01/06 03:04:32;;;;;;;35.47;21.33;;;7.10;99.90;;;;;;5051663;28;20205;-73
2024/01/06 03:06:58;;;;;;;39.37;21.20;;;7.10;99.90;;;;;;5051433;28;20171;-73
2024/01/06 03:09:24;;;;;;;38.10;21.10;;;7.10;99.90;;;;;;5051399;28;20182;-73
2024/01/06 03:11:49;;;;;;;37.97;21.90;;;7.10;99.90;;;;;;5051268;28;20232;-73
2024/01/06 03:14:15;;;;;;;40.23;22.37;;;7.10;99.90;;;;;;5051515;28;20257;-73
2024/01/06 03:16:40;;;;;;;39.50;21.93;;;7.10;99.90;;;;;;5050686;28;20179;-73
2024/01/06 03:19:06;;;;;;;43.57;22.27;;;7.10;99.90;;;;;;5051029;28;20195;-73
2024/01/06 03:21:32;;;;;;;46.33;22.20;;;7.10;99.90;;;;;;5051337;28;20642;-73
2024/01/06 03:23:57;;;;;;;45.83;23.03;;;7.20;99.90;;;;;;5050909;28;20203;-72
2024/01/06 03:26:23;;;;;;;41.47;22.80;;;7.20;99.90;;;;;;5051212;28;20638;-73
2024/01/06 03:28:49;;;;;;;35.87;22.13;;;7.20;99.90;;;;;;5051181;28;20187;-73
2024/01/06 03:31:15;;;;;;;41.90;23.07;;;7.20;99.90;;;;;;5051303;28;20206;-72
2024/01/06 03:33:42;;;;;;;43.00;22.90;;;7.20;99.90;;;;;;5051267;28;20200;-72
2024/01/06 03:36:08;;;;;;;46.80;22.00;;;7.20;99.90;;;;;;5051350;28;20175;-72
2024/01/06 03:38:34;;;;;;;44.30;23.70;;;7.20;99.90;;;;;;5050730;28;20249;-72
2024/01/06 03:40:59;;;;;;;47.03;24.97;;;7.20;99.90;;;;;;5050689;28;20187;-74
2024/01/06 03:43:25;;;;;;;51.73;25.70;;;7.30;99.90;;;;;;5050993;28;20697;-72
2024/01/06 03:45:51;;;;;;;45.63;23.47;;;7.20;99.90;;;;;;5051124;28;20167;-72
2024/01/06 03:48:16;;;;;;;48.27;23.93;;;7.30;99.90;;;;;;5050810;28;20179;-72
2024/01/06 03:50:42;;;;;;;43.73;24.27;;;7.20;99.90;;;;;;5051166;28;20175;-73
2024/01/06 03:53:07;;;;;;;46.43;24.67;;;7.20;99.90;;;;;;5050742;28;20182;-73
2024/01/06 03:55:33;;;;;;;52.63;25.17;;;7.20;99.90;;;;;;5050670;28;20170;-73
2024/01/06 03:57:59;;;;;;;50.10;25.67;;;7.20;99.90;;;;;;5050743;28;20173;-73
2024/01/06 04:00:27;;;;;;;47.67;24.63;;;7.20;99.90;;;;;;5050695;28;20248;-73
2024/01/06 04:02:53;;;;;;;45.73;22.93;;;7.20;99.90;;;;;;5050715;28;20197;-73
2024/01/06 04:05:18;;;;;;;49.13;24.30;;;7.20;99.90;;;;;;5050922;28;20203;-73
2024/01/06 04:07:44;;;;;;;59.30;26.30;;;7.20;99.90;;;;;;5050413;28;20183;-73
2024/01/06 04:10:10;;;;;;;47.87;25.10;;;7.20;99.90;;;;;;5050804;28;20741;-72
2024/01/06 04:12:35;;;;;;;52.57;26.67;;;7.20;99.90;;;;;;5050762;28;20175;-72
2024/01/06 04:15:01;;;;;;;55.10;26.87;;;7.20;99.90;;;;;;5050815;28;20532;-72
2024/01/06 04:17:26;;;;;;;54.53;26.67;;;7.20;99.90;;;;;;5051055;28;20163;-72
2024/01/06 04:19:52;;;;;;;58.27;26.20;;;7.10;99.90;;;;;;5050556;28;20631;-73
2024/01/06 04:22:18;;;;;;;54.03;26.70;;;7.10;99.90;;;;;;5050726;28;20182;-72
2024/01/06 04:24:44;;;;;;;60.63;28.50;;;7.10;99.90;;;;;;5050415;28;20561;-72
2024/01/06 04:27:10;;;;;;;59.90;26.93;;;7.10;99.90;;;;;;5050694;28;20179;-73
2024/01/06 04:29:35;;;;;;;54.90;25.67;;;7.10;99.90;;;;;;5052380;28;20194;-72
2024/01/06 04:32:01;;;;;;;59.63;26.83;;;7.10;99.90;;;;;;5054470;28;20163;-73
2024/01/06 04:34:26;;;;;;;57.90;25.73;;;7.10;99.90;;;;;;5036318;28;20646;-72
2024/01/06 04:36:52;;;;;;;48.83;25.23;;;7.20;99.90;;;;;;5054137;28;20634;-72
2024/01/06 04:39:18;;;;;;;52.17;25.83;;;7.20;99.90;;;;;;5054388;28;20210;-72
2024/01/06 04:41:43;;;;;;;54.43;24.97;;;7.20;99.90;;;;;;5054250;28;20201;-72
2024/01/06 04:44:09;;;;;;;48.30;25.27;;;7.20;99.90;;;;;;5054041;28;20571;-72
2024/01/06 04:46:35;;;;;;;58.90;25.23;;;7.20;99.90;;;;;;5053973;28;20183;-72
2024/01/06 04:49:00;;;;;;;41.63;21.00;;;7.10;99.90;;;;;;5054129;28;20187;-73
2024/01/06 04:51:26;;;;;;;32.47;15.40;;;7.00;99.90;;;;;;5053917;28;20171;-73
2024/01/06 04:53:51;;;;;;;30.67;14.20;;;6.70;99.90;;;;;;5054005;28;20269;-73
2024/01/06 04:56:17;;;;;;;21.83;12.43;;;6.40;99.90;;;;;;5054251;28;20665;-73
2024/01/06 04:58:42;;;;;;;23.53;12.77;;;6.20;99.90;;;;;;5054238;28;20190;-73
2024/01/06 05:01:08;;;;;;;27.27;14.37;;;5.90;99.90;;;;;;5053496;28;20257;-72
2024/01/06 05:03:34;;;;;;;27.43;14.27;;;5.90;99.90;;;;;;5053926;28;20202;-73
2024/01/06 05:05:59;;;;;;;29.63;14.27;;;5.80;99.90;;;;;;5053682;28;20639;-73
2024/01/06 05:08:25;;;;;;;33.47;13.90;;;5.70;99.90;;;;;;5053760;28;20221;-72
2024/01/06 05:10:52;;;;;;;30.87;14.80;;;5.70;99.90;;;;;;5053622;28;20242;-73
2024/01/06 05:13:18;;;;;;;27.57;13.17;;;5.70;99.90;;;;;;5053552;28;20183;-73
2024/01/06 05:15:43;;;;;;;31.03;15.17;;;5.60;99.90;;;;;;5053442;28;20530;-72
2024/01/06 05:18:09;;;;;;;28.07;14.57;;;5.60;99.90;;;;;;5053583;28;20175;-72
2024/01/06 05:20:34;;;;;;;29.50;14.23;;;5.60;99.90;;;;;;5053499;28;20274;-72
2024/01/06 05:23:00;;;;;;;33.40;15.90;;;5.60;99.90;;;;;;5053228;28;20171;-72
2024/01/06 05:25:26;;;;;;;28.17;15.27;;;5.50;99.90;;;;;;5053336;28;20567;-72
2024/01/06 05:27:51;;;;;;;32.03;14.43;;;5.60;99.90;;;;;;5053217;28;20220;-71
2024/01/06 05:30:18;;;;;;;30.57;15.30;;;5.50;99.90;;;;;;5053128;28;20195;-72
2024/01/06 05:32:43;;;;;;;44.73;20.07;;;5.50;99.90;;;;;;5053238;28;20174;-72
2024/01/06 05:35:09;;;;;;;32.23;17.33;;;5.50;99.90;;;;;;5053372;28;20170;-72
2024/01/06 05:37:34;;;;;;;37.20;18.60;;;5.60;99.90;;;;;;5053192;28;20380;-72
2024/01/06 05:40:03;;;;;;;32.90;16.53;;;5.60;99.90;;;;;;5053111;28;20198;-72
2024/01/06 05:42:28;;;;;;;34.07;17.07;;;5.60;99.90;;;;;;5053220;28;20171;-72
2024/01/06 05:44:54;;;;;;;29.17;14.93;;;5.70;99.90;;;;;;5052653;28;20251;-72
2024/01/06 05:47:20;;;;;;;36.37;18.07;;;5.60;99.90;;;;;;5053184;28;20171;-72
2024/01/06 05:49:46;;;;;;;29.60;14.43;;;5.60;99.90;;;;;;5053097;28;20281;-72
2024/01/06 05:52:11;;;;;;;33.97;14.13;;;5.60;99.90;;;;;;5053130;28;20185;-72
2024/01/06 05:54:41;;;;;;;26.37;14.57;;;5.50;99.90;;;;;;5053147;28;20214;-72
2024/01/06 05:57:06;;;;;;;27.87;15.50;;;5.50;99.90;;;;;;5052859;28;20178;-72
2024/01/06 05:59:35;;;;;;;34.80;17.63;;;5.40;99.90;;;;;;5052788;28;20195;-73
2024/01/06 06:02:01;;;;;;;33.80;14.67;;;5.50;99.90;;;;;;5052599;28;20167;-72
2024/01/06 06:04:26;;;;;;;32.10;14.80;;;5.40;99.90;;;;;;5052793;28;20202;-73
2024/01/06 06:06:52;;;;;;;29.40;14.40;;;5.40;99.90;;;;;;5052334;28;20523;-73
2024/01/06 06:09:17;;;;;;;32.60;16.20;;;5.40;99.90;;;;;;5052636;28;20685;-73
2024/01/06 06:11:43;;;;;;;35.40;16.90;;;5.50;99.90;;;;;;5052441;28;20460;-73
2024/01/06 06:14:09;;;;;;;32.07;14.73;;;5.40;99.90;;;;;;5052456;28;20175;-73
2024/01/06 06:16:35;;;;;;;31.50;16.47;;;5.40;99.90;;;;;;5052468;28;20495;-73
2024/01/06 06:19:00;;;;;;;28.97;15.10;;;5.40;99.90;;;;;;5052386;28;20248;-72
2024/01/06 06:21:26;;;;;;;30.17;15.50;;;5.40;99.90;;;;;;5052839;28;20190;-73
2024/01/06 06:23:51;;;;;;;32.60;15.50;;;5.50;99.90;;;;;;5052052;28;20202;-73
2024/01/06 06:26:17;;;;;;;33.20;15.70;;;5.50;99.90;;;;;;5051858;28;20661;-73
2024/01/06 06:28:43;;;;;;;31.87;15.03;;;5.40;99.90;;;;;;5052066;28;20525;-73
2024/01/06 06:31:09;;;;;;;32.97;16.60;;;5.50;99.90;;;;;;5052213;28;20163;-73
2024/01/06 06:33:34;;;;;;;30.23;14.90;;;5.60;99.90;;;;;;5052204;28;20657;-73
2024/01/06 06:36:01;;;;;;;32.33;15.77;;;5.50;99.90;;;;;;5033834;28;20186;-73
2024/01/06 06:38:27;;;;;;;30.57;15.77;;;5.60;99.90;;;;;;5051854;28;20163;-73
2024/01/06 06:40:53;;;;;;;32.60;15.63;;;5.50;99.90;;;;;;5051864;28;20181;-72
2024/01/06 06:43:18;;;;;;;29.03;14.73;;;5.40;99.90;;;;;;5051779;28;20707;-72
2024/01/06 06:45:44;;;;;;;31.33;15.27;;;5.40;99.90;;;;;;5051875;28;20224;-72
2024/01/06 06:48:09;;;;;;;34.17;15.40;;;5.40;99.90;;;;;;5051541;28;20163;-72
2024/01/06 06:50:35;;;;;;;32.37;15.43;;;5.50;99.90;;;;;;5051774;28;20199;-72
2024/01/06 06:53:01;;;;;;;33.80;14.93;;;5.60;99.90;;;;;;5050629;28;20194;-72
2024/01/06 06:55:27;;;;;;;30.13;14.23;;;5.50;99.90;;;;;;5051743;28;20174;-72
2024/01/06 06:57:53;;;;;;;32.47;15.07;;;5.50;99.90;;;;;;5051435;28;20175;-72
2024/01/06 07:00:19;;;;;;;31.23;14.33;;;5.40;99.90;;;;;;5033757;28;20198;-72
2024/01/06 07:02:45;;;;;;;28.50;14.23;;;5.40;99.90;;;;;;5051505;28;20170;-72
2024/01/06 07:05:10;;;;;;;30.60;14.53;;;5.40;99.90;;;;;;5051540;28;20252;-72
2024/01/06 07:07:37;;;;;;;29.83;15.20;;;5.30;99.90;;;;;;5051086;28;20247;-73
2024/01/06 07:10:04;;;;;;;34.67;16.27;;;5.40;99.90;;;;;;5051638;28;20235;-72
2024/01/06 07:12:30;;;;;;;34.30;15.97;;;5.30;99.90;;;;;;5051737;28;20661;-73
2024/01/06 07:14:56;;;;;;;32.40;16.07;;;5.30;99.90;;;;;;5033354;28;20178;-72
2024/01/06 07:17:22;;;;;;;30.13;15.43;;;5.30;99.90;;;;;;5050990;28;20171;-72
2024/01/06 07:19:48;;;;;;;31.60;15.40;;;5.30;99.90;;;;;;5050867;28;20210;-72
2024/01/06 07:22:16;;;;;;;34.30;16.10;;;5.40;99.90;;;;;;5051445;28;20166;-71
2024/01/06 07:24:42;;;;;;;34.73;16.30;;;5.40;99.90;;;;;;5051234;28;20244;-72
2024/01/06 07:27:07;;;;;;;37.57;16.73;;;5.30;99.90;;;;;;5051176;28;20282;-73
2024/01/06 07:29:33;;;;;;;32.77;15.27;;;5.40;99.90;;;;;;5049584;28;20187;-73
2024/01/06 07:31:59;;;;;;;32.97;15.23;;;5.30;99.90;;;;;;5050398;28;20251;-73
2024/01/06 07:34:25;;;;;;;36.83;16.37;;;5.40;99.90;;;;;;5051042;28;20239;-73
2024/01/06 07:36:51;;;;;;;32.43;14.83;;;5.40;99.90;;;;;;5050867;28;20166;-73
2024/01/06 07:39:16;;;;;;;26.27;14.43;;;5.40;99.90;;;;;;5050928;28;20201;-72
2024/01/06 07:41:42;;;;;;;30.57;15.03;;;5.40;99.90;;;;;;5051091;28;20183;-72
2024/01/06 07:44:08;;;;;;;32.50;16.13;;;5.30;99.90;;;;;;5051009;28;20206;-72
2024/01/06 07:46:35;;;;;;;30.47;15.90;;;5.40;99.90;;;;;;5050810;28;20170;-72
2024/01/06 07:49:00;;;;;;;31.40;15.20;;;5.40;99.90;;;;;;5032321;28;20669;-73
2024/01/06 07:51:26;;;;;;;28.80;14.57;;;5.30;99.90;;;;;;5050763;28;20167;-72
2024/01/06 07:53:52;;;;;;;34.93;17.03;;;5.30;99.90;;;;;;5050659;28;20178;-73
2024/01/06 07:56:18;;;;;;;30.17;15.87;;;5.20;99.90;;;;;;5050464;28;20221;-73
2024/01/06 07:58:43;;;;;;;31.83;15.77;;;5.20;99.90;;;;;;5050646;28;20260;-72
2024/01/06 08:01:09;;;;;;;36.33;17.53;;;5.20;99.90;;;;;;5050298;28;20592;-72
2024/01/06 08:03:34;;;;;;;28.60;14.90;;;5.20;99.90;;;;;;5052105;28;20203;-72
2024/01/06 08:06:00;;;;;;;28.77;15.57;;;5.10;99.90;;;;;;5054653;28;20171;-72
2024/01/06 08:08:26;;;;;;;27.07;14.63;;;5.10;99.90;;;;;;5054780;28;20849;-72
2024/01/06 08:10:52;;;;;;;27.63;14.30;;;5.10;99.90;;;;;;5054641;28;20167;-72
2024/01/06 08:13:18;;;;;;;30.37;14.97;;;5.00;99.90;;;;;;5052732;28;20366;-72
2024/01/06 08:15:43;;;;;;;24.80;13.93;;;5.00;99.90;;;;;;5054434;28;20175;-72
2024/01/06 08:18:09;;;;;;;32.17;15.00;;;5.10;99.90;;;;;;5054381;28;20193;-73
2024/01/06 08:20:34;;;;;;;28.60;15.67;;;5.10;99.90;;;;;;5054376;28;20194;-73
2024/01/06 08:23:00;;;;;;;32.77;14.37;;;5.10;99.90;;;;;;5054432;28;20175;-73
2024/01/06 08:25:26;;;;;;;32.43;14.77;;;5.10;99.90;;;;;;5054824;28;20213;-73
2024/01/06 08:27:51;;;;;;;32.30;14.80;;;5.20;99.90;;;;;;5054217;28;20280;-73
2024/01/06 08:30:17;;;;;;;26.40;14.63;;;5.20;99.90;;;;;;5054422;28;20195;-72
2024/01/06 08:32:42;;;;;;;28.33;15.23;;;5.20;99.90;;;;;;5054237;28;20190;-73
2024/01/06 08:35:09;;;;;;;27.83;15.17;;;5.30;99.90;;;;;;5054396;28;20186;-73
2024/01/06 08:37:35;;;;;;;36.60;15.30;;;5.40;99.90;;;;;;5054211;28;20565;-73
2024/01/06 08:40:00;;;;;;;30.87;16.23;;;5.40;99.90;;;;;;5054523;28;20201;-73
2024/01/06 08:42:26;;;;;;;35.70;15.93;;;5.40;99.90;;;;;;5054440;28;20183;-73
2024/01/06 08:44:52;;;;;;;28.17;13.50;;;5.50;99.90;;;;;;5054115;28;20214;-73
2024/01/06 08:47:17;;;;;;;27.67;14.20;;;5.50;99.90;;;;;;5054284;28;20210;-73
2024/01/06 08:49:43;;;;;;;28.83;15.03;;;5.50;99.90;;;;;;5049650;28;20556;-73
2024/01/06 08:52:08;;;;;;;28.23;15.17;;;5.50;99.90;;;;;;5053945;28;20534;-73
2024/01/06 08:54:35;;;;;;;29.43;15.37;;;5.50;99.90;;;;;;5054100;28;20647;-73
2024/01/06 08:57:00;;;;;;;28.63;14.73;;;5.40;99.90;;;;;;5053791;28;20632;-73
2024/01/06 08:59:26;;;;;;;22.23;13.07;;;5.40;99.90;;;;;;5053938;28;20237;-73
2024/01/06 09:01:52;;;;;;;25.07;13.23;;;5.40;99.90;;;;;;5053946;28;20218;-73
2024/01/06 09:04:18;;;;;;;34.10;15.53;;;5.40;99.90;;;;;;5052820;28;20678;-73
2024/01/06 09:06:46;;;;;;;29.07;13.70;;;5.40;99.90;;;;;;5061777;28;20274;-73
2024/01/06 09:09:12;;;;;;;24.37;13.83;;;5.40;99.90;;;;;;5044580;28;20199;-73
2024/01/06 09:11:38;;;;;;;26.00;13.63;;;5.30;99.90;;;;;;5062746;28;20175;-72
2024/01/06 09:14:03;;;;;;;22.13;12.33;;;5.30;99.90;;;;;;5065098;28;20171;-73
2024/01/06 09:16:29;;;;;;;27.20;12.77;;;5.20;99.90;;;;;;5063074;28;20186;-73
2024/01/06 09:18:55;;;;;;;26.37;13.90;;;5.30;99.90;;;;;;5064418;28;20202;-73
2024/01/06 09:21:20;;;;;;;24.07;12.57;;;5.30;99.90;;;;;;5062155;28;20190;-73
2024/01/06 09:23:46;;;;;;;24.67;12.83;;;5.30;99.90;;;;;;5065054;28;20564;-73
2024/01/06 09:26:11;;;;;;;26.13;13.83;;;5.30;99.90;;;;;;5063385;28;20618;-73
2024/01/06 09:28:37;;;;;;;27.30;15.33;;;5.30;99.90;;;;;;5065397;28;20275;-73
2024/01/06 09:31:04;;;;;;;25.20;12.87;;;5.40;99.90;;;;;;5064004;28;20175;-72
2024/01/06 09:33:30;;;;;;;23.13;13.23;;;5.30;99.90;;;;;;5063135;28;20170;-73
2024/01/06 09:35:55;;;;;;;23.70;13.00;;;5.40;99.90;;;;;;5062748;28;20167;-73
2024/01/06 09:38:21;;;;;;;21.63;12.20;;;5.40;99.90;;;;;;5062554;28;20177;-73
2024/01/06 09:40:49;;;;;;;20.47;11.73;;;5.40;99.90;;;;;;5064544;28;20167;-73
2024/01/06 09:43:15;;;;;;;26.83;13.13;;;5.30;99.90;;;;;;5064951;28;20227;-73
2024/01/06 09:45:41;;;;;;;22.63;12.53;;;5.40;99.90;;;;;;5064813;28;20637;-73
2024/01/06 09:48:16;;;;;;;22.27;13.63;;;5.40;99.90;;;;;;5061796;28;20216;-72
2024/01/06 09:50:44;;;;;;;22.30;12.30;;;5.40;99.90;;;;;;5063830;28;20178;-72
2024/01/06 09:53:11;;;;;;;22.53;13.43;;;5.50;99.90;;;;;;5046528;28;20218;-73
2024/01/06 09:55:38;;;;;;;21.47;13.13;;;5.50;99.90;;;;;;5063675;28;20181;-72
2024/01/06 09:58:05;;;;;;;21.30;12.20;;;5.50;99.90;;;;;;5063088;28;20231;-73
2024/01/06 10:00:30;;;;;;;19.90;12.57;;;5.50;99.90;;;;;;5064591;28;20367;-73
2024/01/06 10:02:56;;;;;;;19.80;11.87;;;5.50;99.90;;;;;;5046219;28;20274;-73
2024/01/06 10:05:22;;;;;;;19.43;11.93;;;5.50;99.90;;;;;;5055400;28;20693;-71
2024/01/06 10:07:48;;;;;;;20.53;11.47;;;5.50;99.90;;;;;;5052342;28;20554;-72
2024/01/06 10:10:14;;;;;;;17.07;11.40;;;5.60;99.90;;;;;;5052516;28;20201;-71
2024/01/06 10:12:41;;;;;;;20.27;11.20;;;5.60;99.90;;;;;;5051875;28;20206;-74
2024/01/06 10:15:09;;;;;;;16.90;10.57;;;5.60;99.90;;;;;;5051075;28;20194;-71
2024/01/06 10:17:39;;;;;;;18.57;10.77;;;5.50;99.90;;;;;;5046455;28;20179;-71
2024/01/06 10:20:15;;;;;;;20.60;11.83;;;5.60;99.90;;;;;;5032424;28;20219;-71
2024/01/06 10:22:41;;;;;;;17.17;11.50;;;5.60;99.90;;;;;;5050026;28;20561;-73
2024/01/06 10:25:09;;;;;;;22.67;11.60;;;5.80;99.90;;;;;;5052099;28;20206;-73
2024/01/06 10:27:39;;;;;;;20.00;11.97;;;5.80;99.90;;;;;;5051466;28;20638;-73
2024/01/06 10:30:06;;;;;;;16.87;10.60;;;5.80;99.90;;;;;;5052914;28;20202;-71
2024/01/06 10:32:32;;;;;;;17.37;11.40;;;5.80;99.90;;;;;;5052313;28;20167;-71
2024/01/06 10:35:00;;;;;;;18.60;11.80;;;5.80;99.90;;;;;;5051528;28;20270;-73
2024/01/06 10:37:25;;;;;;;17.60;11.33;;;5.90;99.90;;;;;;5052083;28;20175;-71
2024/01/06 10:40:11;;;;;;;18.93;10.63;;;6.00;99.90;;;;;;5052166;28;20202;-74
2024/01/06 10:42:39;;;;;;;15.73;11.27;;;6.00;99.90;;;;;;5052148;28;20557;-70
2024/01/06 10:45:08;;;;;;;18.70;11.80;;;6.00;99.90;;;;;;5051928;28;20198;-71
2024/01/06 10:47:35;;;;;;;16.13;11.90;;;6.10;99.90;;;;;;5052005;28;20213;-73
2024/01/06 10:50:01;;;;;;;17.50;11.87;;;6.00;99.90;;;;;;5051764;28;20240;-73
2024/01/06 10:52:27;;;;;;;19.70;11.80;;;6.10;99.90;;;;;;5033955;28;20504;-73
2024/01/06 10:54:54;;;;;;;18.57;11.73;;;6.10;99.90;;;;;;5051787;28;20206;-70
2024/01/06 10:57:21;;;;;;;18.53;11.80;;;6.00;99.90;;;;;;5051708;28;20178;-73
2024/01/06 10:59:51;;;;;;;14.53;11.17;;;6.10;99.90;;;;;;5051803;28;20304;-72
2024/01/06 11:02:17;;;;;;;16.27;9.90;;;6.10;99.90;;;;;;5053897;28;20179;-75
2024/01/06 11:04:47;;;;;;;13.87;10.40;;;6.00;99.90;;;;;;5056626;28;20217;-74
2024/01/06 11:07:17;;;;;;;14.70;10.00;;;5.90;99.90;;;;;;5051611;28;20171;-74
2024/01/06 11:09:54;;;;;;;17.33;10.23;;;5.90;99.90;;;;;;5054041;28;20198;-74
2024/01/06 11:12:20;;;;;;;14.53;10.20;;;5.90;99.90;;;;;;5057283;28;20177;-74
2024/01/06 11:14:45;;;;;;;14.40;10.67;;;5.90;99.90;;;;;;5051226;28;20631;-73
2024/01/06 11:17:11;;;;;;;14.73;10.77;;;5.90;99.90;;;;;;5051057;28;20236;-73
2024/01/06 11:19:37;;;;;;;15.33;10.00;;;5.80;99.90;;;;;;5051588;28;20551;-73
2024/01/06 11:22:31;;;;;;;12.47;9.00;;;5.80;99.90;;;;;;5051751;28;20171;-73
2024/01/06 11:25:03;;;;;;;15.27;10.83;;;5.70;99.90;;;;;;5051179;28;20577;-73
2024/01/06 11:27:30;;;;;;;20.33;10.57;;;5.60;99.90;;;;;;5033362;28;20170;-73
2024/01/06 11:29:59;;;;;;;15.37;9.93;;;5.60;99.90;;;;;;5033155;28;20198;-73
2024/01/06 11:32:35;;;;;;;16.87;11.37;;;5.50;99.90;;;;;;5051521;28;20233;-74
2024/01/06 11:35:15;;;;;;;17.30;11.40;;;5.40;99.90;;;;;;5053156;28;20209;-73
2024/01/06 11:37:41;;;;;;;15.93;11.63;;;5.40;99.90;;;;;;5050821;28;20213;-74
2024/01/06 11:40:23;;;;;;;17.70;11.77;;;5.20;99.90;;;;;;5051230;28;20591;-74
2024/01/06 11:43:05;;;;;;;22.90;12.83;;;5.20;99.90;;;;;;5051070;28;20181;-73
2024/01/06 11:45:32;;;;;;;22.27;13.03;;;5.10;99.90;;;;;;5050701;28;20214;-72
2024/01/06 11:48:03;;;;;;;21.60;12.50;;;5.10;99.90;;;;;;5050991;28;20182;-73
2024/01/06 11:50:29;;;;;;;22.63;13.27;;;5.10;99.90;;;;;;5033466;28;20206;-73
2024/01/06 11:52:55;;;;;;;23.13;12.17;;;5.10;99.90;;;;;;5051168;28;20182;-73
2024/01/06 11:55:21;;;;;;;23.73;13.17;;;4.90;99.90;;;;;;5055529;28;20229;-74
2024/01/06 11:57:50;;;;;;;20.30;12.27;;;4.90;99.90;;;;;;5059214;28;20187;-74
2024/01/06 12:00:17;;;;;;;18.47;12.20;;;5.00;99.90;;;;;;5058368;28;20191;-74
2024/01/06 12:02:42;;;;;;;23.57;12.57;;;4.90;99.90;;;;;;5050984;28;20178;-73
2024/01/06 12:05:15;;;;;;;18.57;11.97;;;4.90;99.90;;;;;;5054413;28;20213;-74
2024/01/06 12:07:45;;;;;;;22.10;12.73;;;4.80;99.90;;;;;;5055826;28;20171;-73
2024/01/06 12:10:11;;;;;;;23.17;13.67;;;4.90;99.90;;;;;;5040908;28;20722;-74
2024/01/06 12:12:37;;;;;;;17.93;11.80;;;4.90;99.90;;;;;;5051425;28;20171;-73
2024/01/06 12:15:03;;;;;;;20.83;12.57;;;4.80;99.90;;;;;;5051497;28;20262;-75
2024/01/06 12:17:31;;;;;;;23.77;13.57;;;4.80;99.90;;;;;;5051076;28;20179;-72
2024/01/06 12:19:57;;;;;;;25.57;14.00;;;4.70;99.90;;;;;;5036807;28;20210;-73
2024/01/06 12:22:23;;;;;;;24.13;13.30;;;4.70;99.90;;;;;;5052806;28;20175;-74
2024/01/06 12:24:51;;;;;;;27.00;13.50;;;4.70;99.90;;;;;;5037644;28;20278;-73
2024/01/06 12:27:18;;;;;;;22.13;14.03;;;4.70;99.90;;;;;;5053033;28;20190;-75
2024/01/06 12:29:44;;;;;;;22.07;13.03;;;4.60;99.90;;;;;;5057074;28;20191;-73
2024/01/06 12:32:11;;;;;;;20.33;12.97;;;4.50;99.90;;;;;;5040961;28;20183;-75
2024/01/06 12:34:39;;;;;;;24.77;13.73;;;4.50;99.90;;;;;;5051777;28;20358;-74